createdAt,value
2022-08-04T00:02:26.229Z,1.17
2022-08-04T00:05:21.513Z,1.20
2022-08-04T00:08:16.443Z,1.30
2022-08-04T00:11:03.775Z,1.65
2022-08-04T00:14:02.913Z,1.00
2022-08-04T00:16:53.057Z,1.58
2022-08-04T00:19:43.460Z,1.25
2022-08-04T00:22:31.772Z,1.35
2022-08-04T00:25:18.533Z,1.20
2022-08-04T00:28:05.518Z,1.52
2022-08-04T00:30:54.981Z,1.40
2022-08-04T00:33:44.302Z,1.35
2022-08-04T00:36:32.377Z,1.20
2022-08-04T00:39:19.752Z,1.65
2022-08-04T00:42:22.432Z,2.00
2022-08-04T00:46:16.130Z,1.48
2022-08-04T00:49:08.125Z,1.52
2022-08-04T00:52:32.535Z,1.13
2022-08-04T00:55:43.136Z,1.42
2022-08-04T00:58:40.757Z,1.38
2022-08-04T01:01:44.524Z,1.40
2022-08-04T01:04:46.934Z,1.20
2022-08-04T01:07:50.630Z,1.23
2022-08-04T01:10:49.266Z,1.60
2022-08-04T01:13:57.384Z,1.50
2022-08-04T01:16:50.383Z,1.10
2022-08-04T01:19:56.069Z,1.50
2022-08-04T01:23:21.892Z,1.27
2022-08-04T01:26:57.284Z,1.27
2022-08-04T01:29:51.015Z,1.15
2022-08-04T01:32:49.641Z,1.10
2022-08-04T01:35:47.320Z,1.20
2022-08-04T01:38:37.630Z,1.50
2022-08-04T01:41:32.843Z,1.48
2022-08-04T01:44:20.187Z,1.67
2022-08-04T01:47:09.863Z,1.48
2022-08-04T01:50:06.937Z,1.48
2022-08-04T01:52:55.065Z,1.60
2022-08-04T01:55:54.116Z,1.13
2022-08-04T01:58:42.469Z,1.38
2022-08-04T02:01:30.352Z,1.30
2022-08-04T02:04:23.333Z,1.27
2022-08-04T02:07:23.990Z,1.50
2022-08-04T02:10:22.432Z,1.35
2022-08-04T02:13:20.125Z,1.30
2022-08-04T02:16:12.774Z,1.30
2022-08-04T02:19:05.552Z,1.30
2022-08-04T02:22:01.588Z,1.40
2022-08-04T02:24:51.284Z,1.27
2022-08-04T02:28:00.603Z,5.00
2022-08-04T02:30:58.531Z,1.52
2022-08-04T02:33:47.837Z,1.65
2022-08-04T02:36:38.236Z,1.20
2022-08-04T02:39:32.355Z,1.50
2022-08-04T02:42:35.656Z,1.25
2022-08-04T02:45:23.977Z,1.50
2022-08-04T02:48:30.386Z,1.75
2022-08-04T02:51:24.501Z,1.70
2022-08-04T02:54:11.384Z,1.57
2022-08-04T02:57:02.381Z,1.40
2022-08-04T03:00:07.749Z,1.50
2022-08-04T03:03:03.657Z,1.60
2022-08-04T03:06:29.602Z,1.50
2022-08-04T03:09:58.127Z,1.67
2022-08-04T03:13:27.846Z,1.45
2022-08-04T03:16:48.039Z,1.58
2022-08-04T03:20:20.104Z,1.40
2022-08-04T03:23:41.682Z,1.45
2022-08-04T03:26:49.241Z,1.75
2022-08-04T03:30:06.491Z,1.45
2022-08-04T03:33:45.032Z,1.42
2022-08-04T03:37:09.274Z,1.30
2022-08-04T03:40:40.651Z,1.23
2022-08-04T03:43:57.954Z,1.73
2022-08-04T03:47:16.064Z,1.45
2022-08-04T03:50:40.940Z,1.77
2022-08-04T03:53:39.983Z,1.80
2022-08-04T03:56:53.363Z,1.50
2022-08-04T04:00:03.602Z,1.40
2022-08-04T04:03:26.752Z,1.48
2022-08-04T04:06:54.017Z,1.67
2022-08-04T04:10:06.148Z,1.70
2022-08-04T04:13:10.659Z,1.60
2022-08-04T04:16:21.390Z,1.47
2022-08-04T04:19:38.438Z,2.15
2022-08-04T04:22:52.738Z,1.73
2022-08-04T04:25:53.270Z,1.98
2022-08-04T04:29:03.101Z,1.80
2022-08-04T04:32:08.876Z,2.00
2022-08-04T04:35:19.653Z,2.00
2022-08-04T04:38:40.776Z,2.08
2022-08-04T04:41:38.085Z,1.52
2022-08-04T04:44:58.833Z,1.77
2022-08-04T04:48:09.047Z,2.10
2022-08-04T04:51:09.779Z,1.50
2022-08-04T04:54:07.477Z,1.88
2022-08-04T04:57:04.076Z,1.58
2022-08-04T04:59:56.874Z,1.75
2022-08-04T05:03:12.274Z,1.60
2022-08-04T05:06:16.085Z,1.48
2022-08-04T05:09:19.476Z,1.45
2022-08-04T05:14:31.249Z,1.60
2022-08-04T05:15:35.358Z,1.77
2022-08-04T05:18:25.474Z,1.75
2022-08-04T05:21:27.078Z,1.90
2022-08-04T05:24:19.109Z,1.80
2022-08-04T05:27:13.338Z,1.65
2022-08-04T05:30:04.279Z,1.63
2022-08-04T05:32:59.187Z,1.70
2022-08-04T05:36:17.800Z,1.90
2022-08-04T05:39:00.006Z,1.63
2022-08-04T05:41:55.441Z,1.65
2022-08-04T05:44:50.438Z,1.60
2022-08-04T05:47:39.037Z,1.67
2022-08-04T05:50:26.335Z,1.83
2022-08-04T05:53:16.705Z,1.45
2022-08-04T05:56:04.638Z,1.70
2022-08-04T05:58:54.174Z,2.13
2022-08-04T06:01:55.732Z,1.50
2022-08-04T06:04:48.343Z,1.80
2022-08-04T06:07:35.178Z,1.70
2022-08-04T06:10:44.110Z,2.25
2022-08-04T06:13:48.416Z,2.10
2022-08-04T06:16:42.377Z,2.30
2022-08-04T06:20:00.401Z,2.25
2022-08-04T06:22:42.611Z,2.90
2022-08-04T06:25:32.518Z,2.97
2022-08-04T06:28:20.789Z,2.50
2022-08-04T06:32:28.538Z,2.55
2022-08-04T06:34:18.922Z,2.38
2022-08-04T06:37:07.437Z,4.35
2022-08-04T06:39:54.922Z,6.35
2022-08-04T06:42:43.251Z,4.70
2022-08-04T06:45:30.616Z,6.53
2022-08-04T06:48:19.281Z,5.00
2022-08-04T06:51:26.687Z,5.75
2022-08-04T06:54:15.047Z,4.05
2022-08-04T06:57:03.548Z,3.10
2022-08-04T06:59:54.888Z,2.20
2022-08-04T07:02:45.893Z,2.15
2022-08-04T07:05:33.045Z,1.55
2022-08-04T07:08:21.621Z,1.60
2022-08-04T07:11:09.148Z,2.10
2022-08-04T07:13:56.460Z,2.08
2022-08-04T07:16:43.661Z,1.63
2022-08-04T07:19:31.427Z,1.70
2022-08-04T07:22:25.106Z,1.60
2022-08-04T07:25:16.729Z,1.90
2022-08-04T07:28:04.054Z,1.63
2022-08-04T07:30:51.318Z,1.60
2022-08-04T07:33:39.034Z,1.80
2022-08-04T07:36:29.198Z,1.65
2022-08-04T07:39:27.406Z,1.77
2022-08-04T07:42:20.533Z,2.03
2022-08-04T07:45:10.670Z,1.55
2022-08-04T07:48:04.750Z,1.58
2022-08-04T07:50:54.205Z,1.80
2022-08-04T07:53:54.521Z,2.05
2022-08-04T07:56:43.131Z,1.38
2022-08-04T07:59:31.417Z,1.60
2022-08-04T08:02:20.115Z,1.50
2022-08-04T08:05:10.055Z,1.83
2022-08-04T08:07:58.237Z,1.75
2022-08-04T08:10:48.704Z,1.73
2022-08-04T08:13:35.589Z,1.52
2022-08-04T08:16:25.358Z,1.65
2022-08-04T08:19:12.331Z,1.77
2022-08-04T08:22:00.953Z,1.65
2022-08-04T08:24:48.142Z,1.50
2022-08-04T08:27:35.084Z,1.52
2022-08-04T08:30:23.852Z,1.90
2022-08-04T08:33:15.846Z,1.70
2022-08-04T08:36:08.213Z,1.73
2022-08-04T08:39:03.611Z,2.20
2022-08-04T08:42:16.076Z,1.70
2022-08-04T08:45:42.677Z,1.90
2022-08-04T08:48:57.429Z,1.70
2022-08-04T08:52:04.045Z,1.50
2022-08-04T08:55:17.536Z,1.60
2022-08-04T08:58:27.379Z,1.90
2022-08-04T09:01:25.622Z,1.90
2022-08-04T09:04:38.835Z,1.70
2022-08-04T09:07:45.981Z,1.85
2022-08-04T09:10:42.061Z,1.75
2022-08-04T09:13:37.745Z,1.70
2022-08-04T09:16:36.562Z,1.58
2022-08-04T09:19:37.646Z,1.58
2022-08-04T09:22:33.072Z,1.60
2022-08-04T09:25:26.175Z,1.52
2022-08-04T09:31:25.650Z,1.95
2022-08-04T09:34:19.741Z,1.77
2022-08-04T09:37:16.035Z,1.73
2022-08-04T09:40:08.780Z,1.85
2022-08-04T09:43:29.423Z,1.70
2022-08-04T09:46:41.797Z,1.75
2022-08-04T09:49:36.524Z,1.80
2022-08-04T09:52:37.020Z,1.83
2022-08-04T09:55:53.906Z,1.63
2022-08-04T09:58:57.852Z,1.85
2022-08-04T10:01:45.928Z,1.90
2022-08-04T10:04:34.160Z,1.55
2022-08-04T10:07:59.669Z,1.58
2022-08-04T10:11:08.426Z,1.60
2022-08-04T10:14:01.427Z,1.90
2022-08-04T10:16:58.601Z,1.70
2022-08-04T10:19:47.161Z,1.70
2022-08-04T10:22:55.408Z,1.85
2022-08-04T10:26:07.471Z,1.50
2022-08-04T10:28:59.214Z,1.50
2022-08-04T10:31:55.080Z,1.60
2022-08-04T10:34:44.974Z,1.70
2022-08-04T10:37:59.363Z,1.67
2022-08-04T10:40:50.836Z,1.30
2022-08-04T10:43:47.742Z,1.75
2022-08-04T10:46:41.666Z,1.65
2022-08-04T10:49:36.094Z,1.50
2022-08-04T10:52:32.055Z,1.60
2022-08-04T10:55:21.047Z,1.70
2022-08-04T10:58:17.304Z,1.52
2022-08-04T11:01:13.094Z,1.63
2022-08-04T11:04:32.423Z,1.75
2022-08-04T11:07:20.597Z,1.52
2022-08-04T11:10:09.345Z,1.50
2022-08-04T11:13:03.230Z,1.58
2022-08-04T11:15:56.364Z,1.65
2022-08-04T11:18:49.227Z,1.50
2022-08-04T11:24:35.955Z,1.77
2022-08-04T11:27:30.330Z,1.10
2022-08-04T11:30:18.708Z,1.30
2022-08-04T11:33:17.367Z,1.40
2022-08-04T11:36:12.253Z,1.35
2022-08-04T11:39:08.462Z,1.50
2022-08-04T11:41:59.091Z,1.30
2022-08-04T11:44:50.217Z,1.40
2022-08-04T11:47:45.569Z,1.15
2022-08-04T11:50:41.520Z,1.25
2022-08-04T11:53:36.474Z,1.40
2022-08-04T11:56:36.249Z,0.93
2022-08-04T11:59:25.705Z,1.00
2022-08-04T12:02:38.110Z,1.20
2022-08-04T12:05:36.526Z,0.90
2022-08-04T12:08:41.806Z,1.08
2022-08-04T12:11:41.911Z,1.08
2022-08-04T12:14:44.282Z,0.90
2022-08-04T12:17:53.232Z,1.02
2022-08-04T12:20:44.259Z,1.55
2022-08-04T12:23:37.562Z,1.00
2022-08-04T12:26:29.223Z,1.10
2022-08-04T12:29:19.671Z,1.00
2022-08-04T12:32:20.933Z,1.00
2022-08-04T12:35:16.663Z,1.00
2022-08-04T12:38:06.749Z,1.20
2022-08-04T12:40:58.163Z,1.02
2022-08-04T12:43:47.319Z,1.10
2022-08-04T12:46:35.043Z,0.98
2022-08-04T12:49:25.115Z,1.00
2022-08-04T12:52:15.115Z,0.93
2022-08-04T12:55:03.366Z,1.10
2022-08-04T12:57:52.681Z,1.00
2022-08-04T13:00:41.993Z,0.90
2022-08-04T13:03:31.711Z,1.00
2022-08-04T13:06:24.425Z,1.00
2022-08-04T13:09:17.670Z,1.30
2022-08-04T13:12:12.805Z,1.50
2022-08-04T13:15:17.885Z,1.20
2022-08-04T13:18:14.803Z,1.10
2022-08-04T13:21:19.763Z,1.08
2022-08-04T13:24:21.233Z,1.55
2022-08-04T13:27:18.695Z,1.30
2022-08-04T13:30:07.815Z,1.65
2022-08-04T13:33:00.162Z,1.70
2022-08-04T13:35:55.130Z,0.85
2022-08-04T13:38:50.120Z,1.00
2022-08-04T13:44:31.605Z,0.98
2022-08-04T13:47:25.566Z,1.10
2022-08-04T13:50:19.497Z,1.10
2022-08-04T13:53:06.480Z,1.05
2022-08-04T13:56:00.724Z,1.15
2022-08-04T13:58:50.676Z,0.90
2022-08-04T14:01:39.622Z,1.20
2022-08-04T14:04:28.945Z,1.13
2022-08-04T14:07:21.184Z,1.20
2022-08-04T14:10:11.864Z,1.15
2022-08-04T14:12:58.970Z,0.98
2022-08-04T14:16:01.257Z,1.20
2022-08-04T14:18:59.765Z,1.27
2022-08-04T14:21:47.922Z,1.23
2022-08-04T14:24:34.811Z,1.08
2022-08-04T14:27:21.846Z,1.20
2022-08-04T14:30:09.457Z,1.08
2022-08-04T14:32:58.118Z,0.98
2022-08-04T14:35:57.842Z,1.00
2022-08-04T14:38:56.517Z,1.05
2022-08-04T14:41:50.667Z,1.08
2022-08-04T14:44:56.386Z,1.02
2022-08-04T14:47:52.991Z,1.10
2022-08-04T14:50:42.092Z,1.20
2022-08-04T14:53:30.065Z,1.08
2022-08-04T14:56:45.074Z,1.27
2022-08-04T14:59:25.948Z,1.00
2022-08-04T15:02:15.328Z,1.20
2022-08-04T15:06:01.007Z,1.50
2022-08-04T15:08:13.232Z,1.20
2022-08-04T15:11:02.707Z,1.17
2022-08-04T15:13:51.058Z,1.27
2022-08-04T15:16:37.605Z,1.10
2022-08-04T15:19:41.768Z,1.10
2022-08-04T15:22:42.775Z,1.00
2022-08-04T15:25:33.173Z,1.02
2022-08-04T15:28:23.626Z,0.98
2022-08-04T15:32:04.632Z,1.33
2022-08-04T15:34:19.601Z,1.25
2022-08-04T15:37:07.874Z,1.10
2022-08-04T15:40:01.822Z,1.00
2022-08-04T15:42:50.577Z,1.10
2022-08-04T15:46:32.885Z,0.90
2022-08-04T15:49:18.204Z,1.00
2022-08-04T15:52:12.165Z,1.10
2022-08-04T15:55:32.472Z,1.05
2022-08-04T15:58:23.333Z,0.90
2022-08-04T16:01:17.029Z,1.15
2022-08-04T16:04:22.404Z,1.50
2022-08-04T16:07:09.100Z,1.08
2022-08-04T16:10:13.585Z,1.13
2022-08-04T16:13:05.273Z,1.13
2022-08-04T16:15:54.290Z,1.05
2022-08-04T16:18:43.793Z,1.30
2022-08-04T16:21:35.113Z,1.20
2022-08-04T16:24:22.867Z,1.15
2022-08-04T16:27:11.509Z,1.27
2022-08-04T16:30:07.535Z,1.20
2022-08-04T16:32:56.248Z,1.27
2022-08-04T16:35:43.198Z,1.20
2022-08-04T16:38:31.149Z,1.25
2022-08-04T16:41:41.206Z,1.45
2022-08-04T16:44:52.065Z,1.35
2022-08-04T16:48:01.903Z,1.10
2022-08-04T16:51:05.185Z,1.23
2022-08-04T16:54:04.722Z,1.00
2022-08-04T16:56:52.260Z,1.10
2022-08-04T16:59:39.197Z,0.68
2022-08-04T17:02:26.984Z,0.88
2022-08-04T17:05:38.264Z,0.80
2022-08-04T17:08:31.536Z,0.70
2022-08-04T17:11:19.710Z,0.93
2022-08-04T17:14:06.709Z,0.98
2022-08-04T17:16:55.692Z,1.00
2022-08-04T17:19:52.821Z,0.85
2022-08-04T17:22:39.321Z,0.70
2022-08-04T17:25:51.787Z,0.80
2022-08-04T17:28:47.137Z,0.80
2022-08-04T17:31:37.631Z,0.75
2022-08-04T17:34:26.344Z,0.73
2022-08-04T17:40:25.708Z,0.75
2022-08-04T17:44:03.506Z,0.82
2022-08-04T17:46:29.727Z,0.82
2022-08-04T17:49:22.383Z,0.75
2022-08-04T17:52:41.300Z,0.82
2022-08-04T17:55:37.907Z,0.90
2022-08-04T17:58:27.093Z,0.80
2022-08-04T18:01:24.507Z,0.80
2022-08-04T18:04:29.277Z,0.80
2022-08-04T18:08:35.550Z,0.90
2022-08-04T18:10:44.613Z,0.80
2022-08-04T18:13:42.695Z,1.10
2022-08-04T18:16:30.078Z,1.02
2022-08-04T18:19:18.857Z,1.20
2022-08-04T18:22:12.696Z,1.20
2022-08-04T18:25:03.235Z,1.38
2022-08-04T18:27:53.769Z,1.50
2022-08-04T18:30:54.912Z,1.67
2022-08-04T18:33:42.355Z,1.40
2022-08-04T18:36:33.657Z,1.50
2022-08-04T18:40:26.107Z,1.25
2022-08-04T18:42:37.338Z,1.33
2022-08-04T18:45:25.005Z,1.20
2022-08-04T18:48:21.589Z,1.33
2022-08-04T18:51:24.882Z,1.92
2022-08-04T18:54:12.176Z,1.50
2022-08-04T18:57:32.373Z,1.30
2022-08-04T19:00:09.730Z,1.45
2022-08-04T19:02:57.290Z,1.38
2022-08-04T19:05:44.102Z,1.20
2022-08-04T19:08:42.627Z,1.48
2022-08-04T19:11:37.787Z,1.60
2022-08-04T19:14:41.287Z,1.10
2022-08-04T19:17:53.399Z,1.50
2022-08-04T19:20:37.136Z,1.38
2022-08-04T19:24:27.911Z,1.40
2022-08-04T19:26:32.776Z,1.40
2022-08-04T19:29:19.366Z,1.00
2022-08-04T19:32:14.734Z,1.20
2022-08-04T19:35:02.258Z,1.30
2022-08-04T19:37:56.746Z,1.40
2022-08-04T19:40:52.655Z,1.48
2022-08-04T19:43:39.986Z,1.10
2022-08-04T19:46:30.790Z,1.30
2022-08-04T19:50:03.189Z,1.10
2022-08-04T19:52:33.472Z,1.13
2022-08-04T19:55:37.216Z,1.20
2022-08-04T19:58:25.980Z,1.20
2022-08-04T20:01:28.632Z,1.25
2022-08-04T20:04:20.069Z,1.10
2022-08-04T20:07:11.007Z,1.40
2022-08-04T20:10:04.410Z,1.30
2022-08-04T20:12:55.633Z,1.27
2022-08-04T20:15:58.044Z,1.27
2022-08-04T20:18:55.861Z,1.33
2022-08-04T20:21:56.144Z,1.30
2022-08-04T20:24:50.446Z,1.20
2022-08-04T20:27:59.422Z,1.20
2022-08-04T20:30:47.535Z,1.10
2022-08-04T20:33:35.641Z,1.38
2022-08-04T20:36:23.699Z,1.30
2022-08-04T20:39:11.852Z,1.05
2022-08-04T20:42:02.329Z,1.20
2022-08-04T20:44:49.414Z,1.40
2022-08-04T20:47:36.183Z,1.05
2022-08-04T20:50:29.667Z,1.20
2022-08-04T20:53:17.617Z,0.98
2022-08-04T20:56:06.139Z,1.33
2022-08-04T20:58:53.382Z,0.98
2022-08-04T21:01:39.864Z,1.05
2022-08-04T21:04:32.631Z,1.05
2022-08-04T21:07:19.748Z,1.10
2022-08-04T21:10:07.050Z,1.05
2022-08-04T21:12:56.016Z,1.20
2022-08-04T21:18:49.846Z,1.30
2022-08-04T21:21:36.756Z,1.20
2022-08-04T21:24:26.533Z,1.40
2022-08-04T21:27:14.207Z,1.20
2022-08-04T21:30:02.496Z,1.20
2022-08-04T21:32:52.217Z,1.23
2022-08-04T21:35:39.753Z,1.63
2022-08-04T21:38:28.399Z,1.60
2022-08-04T21:41:24.293Z,1.30
2022-08-04T21:44:13.713Z,1.20
2022-08-04T21:47:01.543Z,1.20
2022-08-04T21:49:56.506Z,1.00
2022-08-04T21:52:44.227Z,1.00
2022-08-04T21:56:05.638Z,1.13
2022-08-04T21:58:39.962Z,1.10
2022-08-04T22:01:52.235Z,1.10
2022-08-04T22:04:39.261Z,1.10
2022-08-04T22:07:26.029Z,1.35
2022-08-04T22:10:33.235Z,1.35
2022-08-04T22:13:22.827Z,1.30
2022-08-04T22:16:09.673Z,1.40
2022-08-04T22:18:57.378Z,1.27
2022-08-04T22:21:48.009Z,1.42
2022-08-04T22:24:35.804Z,1.30
2022-08-04T22:27:36.497Z,1.10
2022-08-04T22:30:32.862Z,1.20
2022-08-04T22:33:23.220Z,1.17
2022-08-04T22:36:10.480Z,1.60
2022-08-04T22:39:06.642Z,1.30
2022-08-04T22:42:04.177Z,1.27
2022-08-04T22:44:51.260Z,1.10
2022-08-04T22:47:38.071Z,1.27
2022-08-04T22:50:27.469Z,1.40
2022-08-04T22:53:18.029Z,1.40
2022-08-04T22:56:10.765Z,1.38
2022-08-04T22:58:57.753Z,1.67
2022-08-04T23:01:59.155Z,1.40
2022-08-04T23:04:52.373Z,1.58
2022-08-04T23:07:49.167Z,1.60
2022-08-04T23:10:38.363Z,1.90
2022-08-04T23:13:29.543Z,1.70
2022-08-04T23:16:16.999Z,1.63
2022-08-04T23:19:09.890Z,1.63
2022-08-04T23:22:01.988Z,1.30
2022-08-04T23:24:49.144Z,1.63
2022-08-04T23:27:39.019Z,1.92
2022-08-04T23:30:29.721Z,1.48
2022-08-04T23:33:16.893Z,1.50
2022-08-04T23:36:03.794Z,1.75
2022-08-04T23:38:50.884Z,1.60
2022-08-04T23:41:53.953Z,1.60
2022-08-04T23:44:41.829Z,1.52
2022-08-04T23:48:14.478Z,1.40
2022-08-04T23:50:40.708Z,1.20
2022-08-04T23:53:28.631Z,2.00
2022-08-04T23:56:19.700Z,1.65
2022-08-04T23:59:23.146Z,1.50
